Time;durP1;ratioP1;P1;durP2;ratioP2;P2;SDS_P1;SDS_P2;PMS_P1;PMS_P2;Temp;Humidity;BMP_temperature;BMP_pressure;BME280_temperature;BME280_humidity;BME280_pressure;Samples;Min_cycle;Max_cycle;Signal;HPM_P1;HPM_P2
2022/10/03 00:00:59;;;;;;;4.50;2.83;;;;;;;10.89;85.05;96868.03;5045205;28;20140;-62
2022/10/03 00:03:42;;;;;;;5.65;3.55;;;;;;;10.54;88.27;96888.50;5045377;28;20148;-61
2022/10/03 00:06:41;;;;;;;3.63;2.80;;;;;;;10.62;85.33;96870.81;5043379;28;20088;-61
2022/10/03 00:09:13;;;;;;;2.75;2.50;;;;;;;10.70;85.13;96871.75;5043175;28;20417;-62
2022/10/03 00:12:19;;;;;;;2.43;2.23;;;;;;;10.83;84.50;96864.78;5043507;28;20567;-61
2022/10/03 00:15:04;;;;;;;3.47;2.13;;;;;;;10.93;83.84;96868.84;5044994;28;20284;-60
2022/10/03 00:18:06;;;;;;;4.07;2.65;;;;;;;10.61;85.08;96869.25;5043646;28;20092;-60
2022/10/03 00:20:54;;;;;;;3.22;2.60;;;;;;;10.82;85.23;96859.59;5044533;28;20519;-61
2022/10/03 00:23:44;;;;;;;4.38;2.67;;;;;;;10.96;84.48;96851.47;5045236;28;20143;-61
2022/10/03 00:26:29;;;;;;;1.52;1.42;;;;;;;11.01;81.90;96862.22;5044632;28;20053;-60
2022/10/03 00:29:05;;;;;;;2.97;2.15;;;;;;;11.08;81.51;96865.88;5043299;28;20053;-60
2022/10/03 00:32:04;;;;;;;2.42;1.88;;;;;;;11.19;80.96;96902.06;5043274;28;20567;-60
2022/10/03 00:34:49;;;;;;;1.98;1.88;;;;;;;11.28;79.68;96855.41;5043105;28;20106;-61
2022/10/03 00:37:49;;;;;;;1.67;1.58;;;;;;;11.38;78.32;96851.97;5044630;28;20076;-60
2022/10/03 00:40:43;;;;;;;2.28;1.52;;;;;;;10.68;82.14;96858.25;5041860;28;20546;-61
2022/10/03 00:43:49;;;;;;;3.30;1.88;;;;;;;10.77;83.56;96868.25;5044951;28;20143;-62
2022/10/03 00:46:38;;;;;;;2.35;2.13;;;;;;;10.88;83.93;96860.88;5043155;28;20045;-61
2022/10/03 00:49:22;;;;;;;2.63;2.17;;;;;;;10.94;83.65;96853.84;5044536;28;20460;-60
2022/10/03 00:51:55;;;;;;;3.25;2.95;;;;;;;10.93;83.45;96857.78;5044537;28;20052;-62
2022/10/03 00:54:43;;;;;;;5.93;4.18;;;;;;;10.67;85.28;96866.94;5044520;28;20199;-61
2022/10/03 00:57:32;;;;;;;4.07;3.25;;;;;;;10.78;85.40;96867.09;5044522;28;20591;-62
2022/10/03 01:00:18;;;;;;;5.15;2.60;;;;;;;10.99;84.43;96845.16;5043003;28;20084;-61
2022/10/03 01:02:54;;;;;;;2.33;2.15;;;;;;;11.07;82.84;96841.31;5044563;28;20056;-61
2022/10/03 01:05:46;;;;;;;1.98;1.88;;;;;;;11.02;82.17;96827.81;5043894;28;20165;-60
2022/10/03 01:08:31;;;;;;;2.25;1.60;;;;;;;11.05;80.26;96843.69;5044707;28;20065;-62
2022/10/03 01:11:06;;;;;;;2.00;1.77;;;;;;;10.95;80.27;96842.38;5044235;28;20111;-60
2022/10/03 01:13:52;;;;;;;2.75;1.95;;;;;;;11.07;81.36;96835.78;5044291;28;20143;-60
2022/10/03 01:16:55;;;;;;;1.98;1.88;;;;;;;11.04;80.25;96837.34;5044286;28;20487;-61
2022/10/03 01:19:46;;;;;;;1.60;1.50;;;;;;;10.93;81.25;96830.88;5044040;28;20560;-59
2022/10/03 01:22:28;;;;;;;3.95;2.30;;;;;;;11.03;81.64;96821.09;5044351;28;20060;-61
2022/10/03 01:25:10;;;;;;;5.82;2.47;;;;;;;11.16;81.41;96811.34;5044224;28;20502;-59
2022/10/03 01:30:42;;;;;;;2.55;1.85;;;;;;;11.26;79.15;96821.72;5044239;28;20136;-60
2022/10/03 01:33:27;;;;;;;2.70;2.13;;;;;;;11.14;81.55;96819.22;5042969;28;20134;-60
2022/10/03 01:36:18;;;;;;;3.17;1.92;;;;;;;11.00;81.87;96821.84;5044499;28;20558;-60
2022/10/03 01:38:50;;;;;;;2.78;2.58;;;;;;;10.89;82.81;96826.47;5044036;28;20234;-61
2022/10/03 01:41:38;;;;;;;2.35;2.15;;;;;;;10.76;84.40;96814.03;5041725;28;20073;-60
2022/10/03 01:44:08;;;;;;;3.63;2.42;;;;;;;10.75;84.86;96823.53;5043911;28;20089;-60
2022/10/03 01:46:38;;;;;;;3.25;2.38;;;;;;;10.73;85.16;96816.38;5042446;28;20095;-60
2022/10/03 01:49:42;;;;;;;2.78;2.58;;;;;;;10.67;86.78;96823.41;5047128;28;20140;-61
2022/10/03 01:52:33;;;;;;;5.00;3.28;;;;;;;10.11;91.38;96833.72;5036014;28;20080;-61
2022/10/03 01:55:10;;;;;;;3.00;2.75;;;;;;;10.16;90.96;96827.81;5047914;28;20053;-61
2022/10/03 01:57:45;;;;;;;3.03;2.15;;;;;;;10.20;89.79;96845.31;5047741;28;20135;-61
2022/10/03 02:00:19;;;;;;;2.67;2.45;;;;;;;10.23;89.17;96836.25;5047645;28;20133;-60
2022/10/03 02:03:07;;;;;;;2.25;2.05;;;;;;;9.52;87.82;96724.84;5046142;28;20118;-60
2022/10/03 02:05:37;;;;;;;3.28;2.20;;;;;;;10.30;87.16;96839.13;5046943;28;20150;-61
2022/10/03 02:08:34;;;;;;;2.50;1.88;;;;;;;10.36;86.53;96839.59;5047567;28;20091;-60
2022/10/03 02:11:09;;;;;;;2.22;2.03;;;;;;;10.33;85.67;96846.69;5047401;28;20057;-60
2022/10/03 02:13:42;;;;;;;2.78;2.42;;;;;;;10.44;86.82;96824.69;5045808;28;20080;-61
2022/10/03 02:16:29;;;;;;;2.50;2.20;;;;;;;10.48;86.57;96842.94;5045707;28;20045;-60
2022/10/03 02:19:10;;;;;;;2.65;2.33;;;;;;;10.63;85.95;96830.91;5047205;28;20134;-59
2022/10/03 02:21:55;;;;;;;2.10;1.95;;;;;;;10.62;84.91;96837.59;5045271;28;20526;-59
2022/10/03 02:24:42;;;;;;;1.65;1.55;;;;;;;10.66;85.19;96838.44;5047415;28;20052;-60
2022/10/03 02:27:34;;;;;;;2.92;1.80;;;;;;;10.63;83.98;96850.28;5047112;28;20076;-59
2022/10/03 02:30:12;;;;;;;3.15;2.40;;;;;;;10.52;86.29;96843.81;5047166;28;20122;-60
2022/10/03 02:32:45;;;;;;;3.35;2.42;;;;;;;10.77;85.52;96838.56;5046917;28;20136;-61
2022/10/03 02:35:15;;;;;;;8.25;3.67;;;;;;;10.82;84.57;96834.66;5045312;28;20134;-60
2022/10/03 02:38:16;;;;;;;4.13;2.50;;;;;;;10.90;84.30;96830.81;5047295;28;20049;-60
2022/10/03 02:41:07;;;;;;;2.28;2.08;;;;;;;10.98;83.67;96824.19;5046754;28;20057;-60
2022/10/03 02:43:49;;;;;;;6.20;3.28;;;;;;;10.69;83.78;96832.16;5046734;28;20135;-60
2022/10/03 02:46:21;;;;;;;4.93;3.15;;;;;;;10.88;83.82;96833.16;5045527;28;20114;-61
2022/10/03 02:48:58;;;;;;;9.37;4.23;;;;;;;9.16;84.12;96550.22;5046775;28;20127;-61
2022/10/03 02:52:02;;;;;;;5.57;3.13;;;;;;;10.35;84.98;96833.25;5046325;28;20898;-61
2022/10/03 02:54:48;;;;;;;4.07;2.40;;;;;;;9.85;89.68;96830.88;5046302;28;20102;-60
2022/10/03 02:58:05;;;;;;;2.72;2.53;;;;;;;10.10;89.12;96834.84;5046700;28;20427;-59
2022/10/03 03:00:57;;;;;;;2.50;2.30;;;;;;;10.23;88.65;96830.72;5023080;28;20293;-60
2022/10/03 03:03:39;;;;;;;3.00;2.10;;;;;;;10.33;88.12;96820.97;5044869;28;20059;-60
2022/10/03 03:06:33;;;;;;;2.55;1.90;;;;;;;9.81;87.72;96746.25;5045911;28;20068;-60
2022/10/03 03:09:35;;;;;;;1.63;1.40;;;;;;;10.46;85.97;96817.59;5044852;28;20049;-61
2022/10/03 03:12:11;;;;;;;3.83;2.45;;;;;;;10.37;85.93;96819.84;5044901;28;20145;-60
2022/10/03 03:14:59;;;;;;;2.50;2.30;;;;;;;10.39;86.24;96817.50;5045996;28;20222;-61
2022/10/03 03:17:36;;;;;;;4.97;2.30;;;;;;;10.37;86.17;96819.84;5046045;28;20088;-61
2022/10/03 03:20:31;;;;;;;4.93;2.60;;;;;;;10.28;86.81;96810.22;5045733;28;20587;-60
2022/10/03 03:23:06;;;;;;;6.38;3.30;;;;;;;10.21;88.65;96805.38;5046587;28;20088;-61
2022/10/03 03:26:00;;;;;;;3.65;2.90;;;;;;;10.30;88.05;96802.34;5044665;28;20084;-59
2022/10/03 03:28:26;;;;;;;;;;;;;;;10.36;87.62;96804.41;5046432;28;20118;-60
2022/10/03 03:30:53;;;;;;;6.10;2.53;;;;;;;10.26;88.21;96791.22;5045655;28;20319;-60
2022/10/03 03:33:32;;;;;;;2.45;2.15;;;;;;;9.83;88.07;96727.31;5044526;28;20084;-60
2022/10/03 03:36:16;;;;;;;3.75;1.90;;;;;;;9.94;86.57;96731.81;5045673;28;20476;-60
2022/10/03 03:38:42;;;;;;;3.22;2.47;;;;;;;10.28;87.30;96760.38;5044196;28;20458;-59
2022/10/03 03:41:29;;;;;;;3.63;2.60;;;;;;;10.27;88.13;96775.41;5044162;28;20095;-60
2022/10/03 03:44:05;;;;;;;3.80;2.80;;;;;;;10.31;86.21;96760.44;5045684;28;20547;-60
2022/10/03 03:47:10;;;;;;;2.67;2.20;;;;;;;10.28;85.98;96766.72;5045304;28;20492;-59
2022/10/03 03:50:14;;;;;;;3.00;2.78;;;;;;;10.28;85.85;96761.19;5043908;28;20092;-61
2022/10/03 03:52:56;;;;;;;2.15;1.70;;;;;;;10.24;86.76;96754.00;5045504;28;20114;-60
2022/10/03 03:55:44;;;;;;;3.03;1.63;;;;;;;10.36;86.82;96751.81;5043930;28;20459;-59
2022/10/03 03:58:35;;;;;;;3.83;2.28;;;;;;;10.30;85.62;96753.31;5045537;28;20530;-60
2022/10/03 04:01:02;;;;;;;4.63;4.07;;;;;;;10.36;84.85;96754.56;5045035;28;20084;-60
2022/10/03 04:04:04;;;;;;;5.97;3.30;;;;;;;9.46;90.73;96771.38;5044799;28;20060;-60
2022/10/03 04:06:55;;;;;;;3.40;3.08;;;;;;;9.37;92.91;96765.31;5043490;28;20061;-61
2022/10/03 04:09:55;;;;;;;16.45;4.40;;;;;;;9.25;95.16;96754.41;5045667;28;20576;-60
2022/10/03 04:13:00;;;;;;;15.68;5.05;;;;;;;8.76;95.25;96656.84;5045164;28;20045;-61
2022/10/03 04:15:32;;;;;;;14.02;4.55;;;;;;;9.35;94.99;96759.34;5044930;28;20486;-61
2022/10/03 04:21:02;;;;;;;87.78;21.60;;;;;;;9.54;93.25;96748.19;5044872;28;20107;-60
2022/10/03 04:23:49;;;;;;;19.25;5.78;;;;;;;9.61;93.49;96740.00;5044824;28;20084;-59
2022/10/03 04:26:50;;;;;;;10.20;4.65;;;;;;;9.63;94.21;96734.09;5043393;28;20380;-61
2022/10/03 04:29:40;;;;;;;3.70;2.80;;;;;;;9.72;93.02;96738.19;5044544;28;20049;-60
2022/10/03 04:32:15;;;;;;;2.30;1.80;;;;;;;9.72;92.54;96738.19;5044503;28;20080;-62
2022/10/03 04:35:11;;;;;;;3.03;1.90;;;;;;;9.84;90.80;96745.50;5044457;28;20087;-59
2022/10/03 04:37:59;;;;;;;4.60;2.28;;;;;;;9.89;89.71;96759.81;5044821;28;20085;-60
2022/10/03 04:41:07;;;;;;;4.63;2.70;;;;;;;9.36;90.59;96708.41;5044273;28;20140;-60
2022/10/03 04:43:44;;;;;;;7.38;3.30;;;;;;;9.95;90.07;96769.38;5044701;28;20500;-60
2022/10/03 04:46:52;;;;;;;7.82;3.88;;;;;;;9.62;90.24;96716.72;5043387;28;20548;-59
2022/10/03 04:50:01;;;;;;;7.82;4.00;;;;;;;10.21;89.61;96771.38;5042974;28;20084;-60
2022/10/03 04:52:38;;;;;;;10.40;4.07;;;;;;;9.97;90.19;96775.34;5044582;28;20103;-59
2022/10/03 04:55:21;;;;;;;9.10;4.63;;;;;;;9.71;92.49;96758.75;5044621;28;20162;-59
2022/10/03 04:58:14;;;;;;;7.50;3.38;;;;;;;9.68;91.84;96770.53;5044624;28;20311;-61
2022/10/03 05:00:58;;;;;;;4.35;3.28;;;;;;;9.92;91.81;96759.06;5044501;28;20135;-59
2022/10/03 05:03:53;;;;;;;4.70;2.60;;;;;;;10.10;89.76;96765.66;5044250;28;20531;-60
2022/10/03 05:06:42;;;;;;;4.63;2.08;;;;;;;10.25;87.72;96767.47;5042740;28;20065;-60
2022/10/03 05:09:41;;;;;;;2.92;2.65;;;;;;;10.29;89.16;96760.00;5042790;28;20498;-60
2022/10/03 05:12:31;;;;;;;6.63;3.10;;;;;;;10.61;88.38;96750.16;5044691;28;20068;-60
2022/10/03 05:15:15;;;;;;;7.65;2.58;;;;;;;10.76;87.88;96748.34;5044564;28;20107;-60
2022/10/03 05:17:51;;;;;;;;;;;;;;;11.01;85.86;96743.88;5043497;28;20049;-59
2022/10/03 05:20:46;;;;;;;4.90;2.92;;;;;;;11.27;84.43;96756.81;5042890;28;19925;-60
2022/10/03 05:24:01;;;;;;;3.40;2.53;;;;;;;11.43;83.24;96768.44;5046733;28;20049;-61
2022/10/03 05:27:04;;;;;;;3.50;2.88;;;;;;;11.74;81.21;96731.88;5047306;28;20057;-60
2022/10/03 05:29:43;;;;;;;3.13;2.40;;;;;;;12.02;80.00;96723.72;5048392;28;20136;-61
2022/10/03 05:32:13;;;;;;;3.83;2.47;;;;;;;12.39;79.37;96757.66;5048798;28;20049;-60
2022/10/03 05:35:15;;;;;;;3.83;2.28;;;;;;;12.64;77.58;96755.81;5046552;28;20045;-61
2022/10/03 05:37:48;;;;;;;3.20;1.92;;;;;;;12.84;75.40;96748.72;5046100;28;20420;-59
2022/10/03 05:40:23;;;;;;;2.03;1.87;;;;;;;13.14;73.65;96749.25;5041739;28;20057;-61
2022/10/03 05:42:50;;;;;;;3.90;1.55;;;;;;;13.35;72.96;96742.91;5045346;28;20079;-62
2022/10/03 05:45:23;;;;;;;3.50;1.80;;;;;;;13.68;71.36;96735.00;5039292;28;20073;-61
2022/10/03 05:48:19;;;;;;;5.78;2.28;;;;;;;13.98;71.31;96742.94;5027657;28;20065;-61
2022/10/03 05:51:07;;;;;;;8.68;3.80;;;;;;;14.12;73.15;96740.13;5046580;28;20112;-59
2022/10/03 05:53:59;;;;;;;9.75;4.10;;;;;;;13.90;74.78;96743.31;5046205;28;20060;-66
2022/10/03 05:57:06;;;;;;;5.05;4.05;;;;;;;13.78;75.85;96743.75;5047222;28;20095;-63
2022/10/03 05:59:38;;;;;;;5.30;3.40;;;;;;;13.55;75.84;96739.38;5027658;28;20491;-60
2022/10/03 06:02:43;;;;;;;4.03;3.63;;;;;;;13.45;76.06;96748.47;5027345;28;20084;-59
2022/10/03 06:05:19;;;;;;;7.20;3.33;;;;;;;13.23;76.31;96713.50;5030354;28;20067;-60
2022/10/03 06:08:21;;;;;;;9.38;4.10;;;;;;;13.28;77.72;96732.56;5027502;28;20077;-63
2022/10/03 06:11:05;;;;;;;10.73;4.78;;;;;;;13.47;76.22;96723.84;5018765;28;20128;-57
2022/10/03 06:13:57;;;;;;;8.38;4.30;;;;;;;13.66;76.29;96720.69;5028473;28;20111;-60
2022/10/03 06:16:30;;;;;;;7.30;3.90;;;;;;;13.89;75.57;96709.13;5040409;28;20053;-60
2022/10/03 06:19:05;;;;;;;22.50;10.25;;;;;;;14.20;74.05;96705.47;5027071;28;20041;-59
2022/10/03 06:22:09;;;;;;;5.72;3.67;;;;;;;14.33;72.78;96719.81;5027098;28;20592;-61
2022/10/03 06:25:00;;;;;;;6.18;4.57;;;;;;;14.22;72.73;96719.00;5042845;28;20138;-61
2022/10/03 06:28:01;;;;;;;8.00;4.38;;;;;;;14.56;72.69;96711.75;5046524;28;20220;-63
2022/10/03 06:30:45;;;;;;;83.63;56.75;;;;;;;14.90;72.11;96710.00;5045581;28;20421;-65
2022/10/03 06:33:12;;;;;;;;;;;;;;;15.44;69.82;96706.53;5045396;28;20068;-64
2022/10/03 06:35:58;;;;;;;7.47;3.80;;;;;;;15.72;67.97;96709.09;5042311;28;19925;-64
2022/10/03 06:39:01;;;;;;;5.13;3.38;;;;;;;16.09;65.63;96765.00;5046926;28;20080;-61
2022/10/03 06:41:47;;;;;;;5.85;3.92;;;;;;;16.41;63.41;96720.78;5045221;28;20084;-61
2022/10/03 06:44:21;;;;;;;9.23;3.63;;;;;;;16.72;61.90;96712.47;5045828;28;20056;-61
2022/10/03 06:47:00;;;;;;;7.88;3.50;;;;;;;16.95;60.82;96712.56;5046645;28;20132;-65
2022/10/03 06:50:00;;;;;;;6.63;2.95;;;;;;;17.27;60.14;96710.13;5044705;28;20110;-62
2022/10/03 06:52:48;;;;;;;4.95;2.80;;;;;;;17.63;58.84;96711.19;5045625;28;20151;-61
2022/10/03 06:55:27;;;;;;;8.88;2.85;;;;;;;18.21;57.64;96707.78;5044577;28;20057;-62
2022/10/03 06:58:22;;;;;;;7.93;3.47;;;;;;;18.69;56.49;96716.53;5046486;28;20186;-61
2022/10/03 07:01:10;;;;;;;6.50;3.05;;;;;;;18.75;55.08;96714.78;5046186;28;20080;-63
2022/10/03 07:04:05;;;;;;;9.27;3.00;;;;;;;18.48;54.62;96711.31;5045923;28;20516;-61
2022/10/03 07:06:54;;;;;;;2.65;2.45;;;;;;;17.68;54.71;96579.06;5044616;28;20061;-64
2022/10/03 07:09:46;;;;;;;9.75;3.60;;;;;;;18.49;55.48;96700.91;5037784;28;20091;-60
2022/10/03 07:12:46;;;;;;;3.53;2.58;;;;;;;19.09;53.37;96706.88;5038584;28;20533;-61
2022/10/03 07:15:37;;;;;;;6.53;3.38;;;;;;;19.55;51.78;96706.63;5029272;28;20127;-62
2022/10/03 07:18:56;;;;;;;5.00;2.60;;;;;;;20.14;51.64;96708.44;5044594;28;20726;-63
2022/10/03 07:22:07;;;;;;;2.70;2.60;;;;;;;20.83;49.43;96699.31;5034411;28;20139;-65
2022/10/03 07:25:12;;;;;;;3.22;3.03;;;;;;;21.03;47.80;96705.56;5007469;28;20088;-65
2022/10/03 07:27:57;;;;;;;12.10;3.47;;;;;;;21.00;45.80;96698.03;5023669;28;20141;-61
2022/10/03 07:30:49;;;;;;;6.72;4.40;;;;;;;20.59;45.32;96656.56;5037247;28;20131;-61
2022/10/03 07:33:34;;;;;;;3.67;3.33;;;;;;;20.78;45.77;96691.41;5044434;28;20071;-61
2022/10/03 07:39:42;;;;;;;4.05;3.60;;;;;;;20.69;46.19;96702.53;5025197;28;20136;-62
2022/10/03 07:42:35;;;;;;;3.33;3.05;;;;;;;20.72;45.64;96704.44;5031524;28;20077;-62
2022/10/03 07:45:38;;;;;;;3.88;2.80;;;;;;;20.71;45.68;96700.03;5044493;28;20136;-62
2022/10/03 07:48:42;;;;;;;4.20;3.17;;;;;;;20.86;45.79;96693.56;5045460;28;20092;-63
2022/10/03 07:51:20;;;;;;;3.20;3.00;;;;;;;20.82;45.07;96700.53;5043589;28;20468;-59
2022/10/03 07:54:05;;;;;;;9.90;4.05;;;;;;;20.60;46.63;96708.78;5042848;28;20134;-59
2022/10/03 07:56:50;;;;;;;3.65;3.25;;;;;;;20.80;47.04;96705.81;5044664;28;20140;-60
2022/10/03 07:59:54;;;;;;;3.88;2.83;;;;;;;21.00;47.04;96709.28;5045198;28;20053;-62
2022/10/03 08:02:56;;;;;;;3.50;3.20;;;;;;;20.61;46.60;96703.94;5043143;28;20053;-66
2022/10/03 08:05:32;;;;;;;3.25;3.03;;;;;;;20.56;47.37;96704.50;5042694;28;20067;-61
2022/10/03 08:08:34;;;;;;;3.35;3.05;;;;;;;20.42;47.69;96700.03;5044344;28;20107;-62
2022/10/03 08:11:26;;;;;;;3.20;2.90;;;;;;;20.44;47.47;96699.56;5040567;28;20505;-59
2022/10/03 08:14:00;;;;;;;3.17;2.85;;;;;;;20.50;46.88;96703.44;5050993;28;20507;-57
2022/10/03 08:16:45;;;;;;;2.88;2.65;;;;;;;20.47;47.06;96693.09;5038266;28;20412;-63
2022/10/03 08:19:34;;;;;;;3.53;2.67;;;;;;;20.58;47.47;96694.34;5035022;28;20133;-63
2022/10/03 08:22:31;;;;;;;2.63;2.42;;;;;;;20.75;46.20;96697.91;5043581;28;20145;-65
2022/10/03 08:25:07;;;;;;;3.05;2.75;;;;;;;20.96;45.12;96692.50;5043787;28;20313;-56
2022/10/03 08:28:11;;;;;;;2.63;2.53;;;;;;;21.10;44.92;96696.94;5039779;28;20142;-60
2022/10/03 08:30:44;;;;;;;;;;;;;;;21.07;45.03;96692.16;5044483;28;20478;-62
2022/10/03 08:33:10;;;;;;;3.22;2.90;;;;;;;21.04;45.18;96695.88;5041781;28;20199;-64
2022/10/03 08:36:03;;;;;;;3.03;2.70;;;;;;;20.77;45.46;96698.28;5024194;28;20610;-62
2022/10/03 08:38:42;;;;;;;3.05;2.83;;;;;;;20.80;45.79;96695.34;5024320;28;20089;-62
2022/10/03 08:41:12;;;;;;;3.05;2.65;;;;;;;20.80;46.13;96694.56;5024491;28;20132;-61
2022/10/03 08:44:01;;;;;;;3.50;3.25;;;;;;;20.55;46.95;96694.47;5023667;28;20566;-62
2022/10/03 08:47:02;;;;;;;4.63;3.35;;;;;;;20.24;47.53;96701.72;5040845;28;20146;-62
2022/10/03 08:49:33;;;;;;;3.13;2.85;;;;;;;20.26;48.04;96700.06;5040528;28;20087;-67
2022/10/03 08:52:06;;;;;;;5.03;3.13;;;;;;;20.16;47.39;96694.72;5023776;28;20107;-64
2022/10/03 08:54:43;;;;;;;4.45;2.40;;;;;;;19.89;47.85;96702.59;5025151;28;20065;-59
2022/10/03 08:57:37;;;;;;;3.17;2.22;;;;;;;19.77;48.70;96708.94;5047222;28;20056;-64
2022/10/03 09:00:07;;;;;;;4.55;3.42;;;;;;;19.73;49.02;96711.06;5051234;28;20092;-65
2022/10/03 09:02:59;;;;;;;6.65;4.20;;;;;;;19.45;49.24;96718.13;5051177;28;20114;-62
2022/10/03 09:06:10;;;;;;;3.25;2.80;;;;;;;18.92;50.04;96713.63;5044421;28;20385;-61
2022/10/03 09:09:04;;;;;;;6.82;3.70;;;;;;;19.05;50.84;96722.97;5035526;28;20049;-63
2022/10/03 09:12:03;;;;;;;;;;;;;;;18.62;52.70;96727.88;5030890;28;20713;-61
2022/10/03 09:14:45;;;;;;;6.00;2.83;;;;;;;17.65;55.28;96731.19;5019549;28;19995;-64
2022/10/03 09:17:49;;;;;;;6.07;3.00;;;;;;;17.58;56.57;96722.88;5046726;28;20088;-62
2022/10/03 09:20:52;;;;;;;11.60;2.88;;;;;;;17.49;57.55;96731.81;5051913;28;20079;-63
2022/10/03 09:23:46;;;;;;;5.85;2.55;;;;;;;17.36;59.35;96725.19;5048370;28;20088;-61
2022/10/03 09:26:31;;;;;;;7.57;5.10;;;;;;;17.06;60.44;96733.59;5028614;28;20417;-60
2022/10/03 09:29:05;;;;;;;7.38;2.60;;;;;;;17.41;59.20;96732.31;5028736;28;20524;-63
2022/10/03 09:32:13;;;;;;;9.18;6.20;;;;;;;17.70;59.03;96739.09;5030393;28;20049;-62
2022/10/03 09:34:57;;;;;;;8.32;5.32;;;;;;;18.08;58.17;96743.28;5043309;28;20096;-61
2022/10/03 09:37:44;;;;;;;5.38;4.10;;;;;;;18.02;58.98;96733.75;5050508;28;20057;-61
2022/10/03 09:40:42;;;;;;;5.88;3.63;;;;;;;18.22;57.63;96748.66;5049273;28;20056;-62
2022/10/03 09:43:27;;;;;;;13.88;5.20;;;;;;;18.42;58.83;96746.69;5048045;28;20299;-61
2022/10/03 09:46:16;;;;;;;19.52;8.85;;;;;;;18.51;59.85;96744.13;5049867;28;20590;-60
2022/10/03 09:48:43;;;;;;;35.33;16.85;;;;;;;18.48;60.02;96744.19;5049624;28;20536;-60
2022/10/03 09:51:56;;;;;;;7.18;5.15;;;;;;;18.41;59.41;96747.94;5049035;28;20053;-60
2022/10/03 09:54:46;;;;;;;19.08;7.57;;;;;;;18.29;61.71;96745.69;5046972;28;20057;-60
2022/10/03 09:57:19;;;;;;;8.00;4.53;;;;;;;16.59;63.84;96485.72;5047407;28;20052;-60
2022/10/03 09:59:59;;;;;;;6.65;2.92;;;;;;;18.23;66.27;96747.41;5050207;28;20520;-60
2022/10/03 10:02:54;;;;;;;4.05;3.58;;;;;;;18.23;68.94;96749.41;5050453;28;20103;-62
2022/10/03 10:06:01;;;;;;;4.25;3.20;;;;;;;18.02;72.20;96740.16;5049635;28;20535;-61
2022/10/03 10:08:44;;;;;;;10.50;3.85;;;;;;;18.09;74.20;96751.28;5042322;28;20045;-64
2022/10/03 10:11:23;;;;;;;4.68;3.55;;;;;;;18.18;75.47;96764.72;5044765;28;20052;-63
2022/10/03 10:14:09;;;;;;;4.53;3.10;;;;;;;18.05;76.31;96766.56;5044444;28;20080;-64
2022/10/03 10:17:09;;;;;;;3.85;3.17;;;;;;;18.22;77.84;96771.06;5042512;28;20460;-63
2022/10/03 10:19:54;;;;;;;3.75;2.47;;;;;;;17.95;78.45;96722.69;5045781;28;20693;-62
2022/10/03 10:22:20;;;;;;;6.50;3.03;;;;;;;18.17;75.73;96762.34;5046580;28;20049;-62
2022/10/03 10:25:05;;;;;;;4.28;2.75;;;;;;;18.14;77.01;96752.78;5046498;28;20056;-63
2022/10/03 10:27:38;;;;;;;4.30;2.97;;;;;;;18.35;77.65;96751.63;5045977;28;20186;-64
2022/10/03 10:30:19;;;;;;;4.97;2.65;;;;;;;18.34;76.76;96756.44;5044833;28;20076;-61
2022/10/03 10:33:20;;;;;;;3.03;2.60;;;;;;;18.23;78.13;96755.81;5043878;28;20114;-60
2022/10/03 10:36:12;;;;;;;3.10;2.53;;;;;;;18.09;77.56;96750.47;5025023;28;20049;-64
2022/10/03 10:38:55;;;;;;;3.35;2.30;;;;;;;18.34;76.24;96750.81;5038565;28;20114;-61
2022/10/03 10:41:43;;;;;;;3.33;2.35;;;;;;;18.65;76.16;96738.22;5041766;28;20061;-63
2022/10/03 10:44:35;;;;;;;2.83;2.55;;;;;;;19.00;72.98;96743.13;5026220;28;20061;-60
2022/10/03 10:47:20;;;;;;;2.70;2.50;;;;;;;19.22;71.10;96749.88;5024695;28;20073;-63
2022/10/03 10:50:12;;;;;;;3.08;2.65;;;;;;;19.57;67.97;96747.56;5041705;28;20102;-60
2022/10/03 10:53:00;;;;;;;2.40;2.25;;;;;;;20.09;68.00;96739.88;5046102;28;20203;-61
2022/10/03 10:55:36;;;;;;;2.75;2.55;;;;;;;20.21;62.23;96725.13;5043941;28;20111;-60
2022/10/03 10:58:27;;;;;;;4.50;2.88;;;;;;;20.44;63.06;96731.31;5029216;28;20567;-57
2022/10/03 11:01:15;;;;;;;2.80;2.60;;;;;;;20.59;61.77;96726.13;5039819;28;20053;-65
2022/10/03 11:04:02;;;;;;;3.20;2.78;;;;;;;20.59;61.97;96728.94;5044541;28;20091;-63
2022/10/03 11:06:53;;;;;;;3.25;2.42;;;;;;;20.85;59.95;96713.69;5045389;28;20099;-70
2022/10/03 11:09:38;;;;;;;5.30;3.40;;;;;;;21.02;58.45;96722.91;5051377;28;20145;-61
2022/10/03 11:12:23;;;;;;;3.67;3.03;;;;;;;20.80;59.52;96717.09;5045798;28;20088;-64
2022/10/03 11:15:14;;;;;;;5.43;3.75;;;;;;;20.79;59.82;96721.13;5044829;28;20060;-67
2022/10/03 11:18:06;;;;;;;2.63;2.53;;;;;;;20.20;60.91;96717.94;5045708;28;20178;-64
2022/10/03 11:20:54;;;;;;;3.10;2.90;;;;;;;20.45;59.14;96724.47;5043997;28;20092;-61
2022/10/03 11:23:56;;;;;;;3.90;2.75;;;;;;;20.42;58.77;96718.94;5042472;28;20152;-61
2022/10/03 11:26:57;;;;;;;3.00;2.80;;;;;;;20.04;58.41;96715.09;5021478;28;20152;-62
2022/10/03 11:29:55;;;;;;;3.70;3.40;;;;;;;20.76;57.36;96710.75;5025662;28;20446;-61
2022/10/03 11:32:23;;;;;;;3.60;3.30;;;;;;;21.40;55.40;96710.50;5023591;28;20053;-61
2022/10/03 11:35:27;;;;;;;3.17;2.90;;;;;;;20.98;53.64;96714.56;5028869;28;20126;-60
2022/10/03 11:38:18;;;;;;;2.80;2.65;;;;;;;20.07;55.50;96719.84;5043628;28;20134;-61
2022/10/03 11:41:09;;;;;;;3.80;3.50;;;;;;;21.13;52.33;96718.56;5029699;28;20585;-62
2022/10/03 11:43:44;;;;;;;3.03;2.88;;;;;;;21.79;50.73;96720.56;5044507;28;20088;-61
2022/10/03 11:46:43;;;;;;;3.78;3.47;;;;;;;22.04;49.82;96721.34;5044640;28;20139;-64
2022/10/03 11:49:22;;;;;;;3.45;3.17;;;;;;;22.39;48.16;96725.78;5045187;28;20107;-64
2022/10/03 11:52:18;;;;;;;3.75;3.45;;;;;;;22.19;48.83;96728.06;5044227;28;20053;-61
2022/10/03 11:54:47;;;;;;;3.55;3.35;;;;;;;21.50;48.46;96723.44;5042678;28;20131;-64
2022/10/03 11:57:27;;;;;;;4.07;3.75;;;;;;;21.09;50.83;96734.00;5044627;28;20135;-61
2022/10/03 12:00:01;;;;;;;4.95;3.95;;;;;;;21.78;50.47;96722.59;5044643;28;20496;-63
2022/10/03 12:02:31;;;;;;;6.47;5.88;;;;;;;22.17;49.95;96732.59;5030131;28;20100;-67
2022/10/03 12:05:13;;;;;;;4.05;3.85;;;;;;;21.69;46.66;96694.25;5044844;28;20991;-68
2022/10/03 12:10:37;;;;;;;3.03;2.80;;;;;;;21.03;44.70;96742.19;5033902;28;20051;-63
2022/10/03 12:13:21;;;;;;;2.58;2.47;;;;;;;20.26;44.19;96655.06;5044934;28;20488;-61
2022/10/03 12:15:51;;;;;;;2.55;2.40;;;;;;;20.59;44.18;96720.50;5044244;28;20075;-62
2022/10/03 12:18:41;;;;;;;2.55;2.45;;;;;;;20.63;44.34;96716.34;5042202;28;20060;-63
2022/10/03 12:21:23;;;;;;;2.50;2.40;;;;;;;20.47;43.98;96715.59;5034937;28;20048;-63
2022/10/03 12:23:56;;;;;;;2.50;2.30;;;;;;;20.24;44.03;96724.22;5044321;28;20052;-64
2022/10/03 12:26:44;;;;;;;2.47;2.38;;;;;;;20.15;44.81;96721.25;5044072;28;20114;-62
2022/10/03 12:29:14;;;;;;;2.20;2.10;;;;;;;19.99;45.02;96718.44;5043970;28;20487;-62
2022/10/03 12:31:59;;;;;;;2.30;2.10;;;;;;;20.09;45.08;96728.63;5042855;28;20084;-65
2022/10/03 12:34:28;;;;;;;3.15;2.20;;;;;;;19.89;43.84;96725.09;5042185;28;20101;-61
2022/10/03 12:37:12;;;;;;;2.30;2.10;;;;;;;17.57;42.81;96410.41;5043681;28;20202;-68
2022/10/03 12:39:51;;;;;;;2.10;2.00;;;;;;;19.43;43.86;96720.56;5043306;28;20512;-63
2022/10/03 12:42:27;;;;;;;2.97;2.03;;;;;;;19.30;43.72;96726.06;5033625;28;20682;-62
2022/10/03 12:45:10;;;;;;;2.60;2.40;;;;;;;18.54;44.72;96642.25;5043934;28;20582;-62
2022/10/03 12:48:08;;;;;;;2.00;1.90;;;;;;;19.04;44.39;96709.38;5056598;28;20060;-65
2022/10/03 12:50:42;;;;;;;2.38;2.28;;;;;;;19.18;44.39;96715.50;5026141;28;20061;-70
2022/10/03 12:53:37;;;;;;;2.42;2.20;;;;;;;18.73;43.78;96654.72;5034663;28;20053;-62
2022/10/03 12:56:29;;;;;;;2.60;2.10;;;;;;;19.14;43.93;96709.13;5022086;28;20053;-63
2022/10/03 12:59:32;;;;;;;2.67;2.47;;;;;;;19.10;44.13;96702.81;5037463;28;20140;-66
2022/10/03 13:02:21;;;;;;;4.80;2.73;;;;;;;18.37;44.04;96587.31;3748750;28;10001587;-65
2022/10/03 13:05:21;;;;;;;2.55;2.45;;;;;;;19.30;44.19;96706.41;5021895;28;20140;-70
2022/10/03 13:08:05;;;;;;;2.38;2.28;;;;;;;19.33;43.57;96699.91;5027877;28;20503;-66
2022/10/03 13:10:44;;;;;;;3.10;2.60;;;;;;;18.54;44.25;96574.16;5043871;28;20110;-69
2022/10/03 13:13:32;;;;;;;2.40;2.30;;;;;;;19.35;44.13;96710.72;5042356;28;20530;-68
2022/10/03 13:16:17;;;;;;;2.30;2.20;;;;;;;19.48;43.63;96706.81;5043852;28;20169;-63
2022/10/03 13:19:07;;;;;;;2.97;2.78;;;;;;;19.69;44.21;96687.84;5042856;28;20137;-67